Time;durP1;ratioP1;P1;durP2;ratioP2;P2;SDS_P1;SDS_P2;PMS_P1;PMS_P2;Temp;Humidity;BMP_temperature;BMP_pressure;BME280_temperature;BME280_humidity;BME280_pressure;Samples;Min_cycle;Max_cycle;Signal;HPM_P1;HPM_P2
2023/06/13 00:01:49;;;;;;;7.25;4.95;;;16.40;99.90;;;;;;4978022;28;20273;-83
2023/06/13 00:04:23;;;;;;;8.15;4.93;;;16.40;99.90;;;;;;4978796;28;20161;-82
2023/06/13 00:06:54;;;;;;;6.97;4.85;;;16.30;99.90;;;;;;4978480;28;20161;-82
2023/06/13 00:09:22;;;;;;;9.05;4.68;;;16.20;99.90;;;;;;4978675;28;20279;-82
2023/06/13 00:11:51;;;;;;;5.15;4.22;;;16.20;99.90;;;;;;4979619;28;20236;-83
2023/06/13 00:14:23;;;;;;;7.10;4.95;;;16.20;99.90;;;;;;4978952;28;20184;-83
2023/06/13 00:16:50;;;;;;;8.30;5.30;;;16.20;99.90;;;;;;4979277;28;20181;-83
2023/06/13 00:19:17;;;;;;;8.70;5.07;;;16.10;99.90;;;;;;4977905;28;20201;-83
2023/06/13 00:21:45;;;;;;;7.97;4.93;;;15.90;99.90;;;;;;4979056;28;20673;-83
2023/06/13 00:24:11;;;;;;;9.57;5.00;;;15.70;99.90;;;;;;4980137;28;20176;-83
2023/06/13 00:26:37;;;;;;;10.32;5.57;;;15.60;99.90;;;;;;4979780;28;20213;-84
2023/06/13 00:29:03;;;;;;;6.00;4.93;;;15.50;99.90;;;;;;4981803;28;20256;-83
2023/06/13 00:31:29;;;;;;;10.52;5.38;;;15.30;99.90;;;;;;4981940;28;20200;-83
2023/06/13 00:33:59;;;;;;;6.55;5.00;;;15.20;99.90;;;;;;4980088;28;20561;-83
2023/06/13 00:36:27;;;;;;;8.07;5.25;;;15.20;99.90;;;;;;4980313;28;20173;-83
2023/06/13 00:38:56;;;;;;;7.43;5.20;;;15.30;99.90;;;;;;4980637;28;20177;-83
2023/06/13 00:41:23;;;;;;;5.78;4.55;;;15.40;99.90;;;;;;4979495;28;20191;-82
2023/06/13 00:43:48;;;;;;;6.20;4.78;;;15.50;99.90;;;;;;4979451;28;20208;-83
2023/06/13 00:46:17;;;;;;;6.53;5.20;;;15.50;99.90;;;;;;4983564;28;20224;-84
2023/06/13 00:48:45;;;;;;;11.10;5.50;;;15.50;1.00;;;;;;4980821;28;20251;-83
2023/06/13 00:51:12;;;;;;;8.27;5.50;;;15.40;1.00;;;;;;4980964;28;20200;-83
2023/06/13 00:53:39;;;;;;;7.60;5.05;;;15.40;1.00;;;;;;4981402;28;20181;-83
2023/06/13 00:56:06;;;;;;;7.57;5.60;;;15.30;1.00;;;;;;4979900;28;20217;-83
2023/06/13 00:58:33;;;;;;;8.75;5.20;;;15.30;1.00;;;;;;4979462;28;20555;-83
2023/06/13 01:01:02;;;;;;;7.75;5.32;;;15.20;1.00;;;;;;4979764;28;20201;-83
2023/06/13 01:03:29;;;;;;;9.15;5.20;;;15.20;99.90;;;;;;4979058;28;20192;-83
2023/06/13 01:05:55;;;;;;;8.63;5.18;;;15.10;99.90;;;;;;4977980;28;20205;-83
2023/06/13 01:08:24;;;;;;;7.50;5.60;;;15.10;1.00;;;;;;4978410;28;20187;-83
2023/06/13 01:11:13;;;;;;;6.53;5.13;;;15.10;99.90;;;;;;4977986;28;20283;-83
2023/06/13 01:14:02;;;;;;;8.73;5.47;;;15.10;1.00;;;;;;4977372;28;20192;-83
2023/06/13 01:16:43;;;;;;;8.30;5.82;;;15.00;1.00;;;;;;4978491;28;20631;-83
2023/06/13 01:19:40;;;;;;;8.48;5.60;;;15.00;99.90;;;;;;4978454;28;20304;-83
2023/06/13 01:22:22;;;;;;;8.82;5.30;;;14.90;99.90;;;;;;4977893;28;20195;-83
2023/06/13 01:25:00;;;;;;;8.68;5.95;;;14.90;45.90;;;;;;4979695;28;20236;-84
2023/06/13 01:27:27;;;;;;;10.40;5.85;;;14.80;99.90;;;;;;4982383;28;20278;-84
2023/06/13 01:29:54;;;;;;;9.75;5.55;;;14.90;1.00;;;;;;4983138;28;20193;-84
2023/06/13 01:32:22;;;;;;;7.30;5.35;;;14.70;1.00;;;;;;4980613;28;20181;-84
2023/06/13 01:34:49;;;;;;;7.95;5.47;;;14.60;1.00;;;;;;4981584;28;20215;-84
2023/06/13 01:37:16;;;;;;;7.07;5.47;;;14.40;99.90;;;;;;4981992;28;20192;-84
2023/06/13 01:39:43;;;;;;;8.85;5.38;;;14.30;1.00;;;;;;4981206;28;20216;-84
2023/06/13 01:42:09;;;;;;;8.27;5.65;;;14.20;1.00;;;;;;4987814;28;20177;-84
2023/06/13 01:44:36;;;;;;;7.95;6.07;;;14.20;1.00;;;;;;4983515;28;20208;-84
2023/06/13 01:47:34;;;;;;;10.38;5.50;;;14.20;1.00;;;;;;4982736;28;20185;-84
2023/06/13 01:50:18;;;;;;;6.53;5.15;;;14.20;1.00;;;;;;4983249;28;20197;-84
2023/06/13 01:52:44;;;;;;;8.73;6.38;;;14.20;1.00;;;;;;4984821;28;20192;-82
2023/06/13 01:55:22;;;;;;;9.18;5.75;;;14.20;1.00;;;;;;4985128;28;20203;-82
2023/06/13 01:58:09;;;;;;;7.28;5.80;;;14.20;1.00;;;;;;4985875;28;20650;-81
2023/06/13 02:00:38;;;;;;;8.60;5.55;;;14.20;1.00;;;;;;4986638;28;20197;-81
2023/06/13 02:03:05;;;;;;;9.30;5.50;;;14.00;1.00;;;;;;4986763;28;20177;-81
2023/06/13 02:05:30;;;;;;;7.60;5.50;;;13.90;1.00;;;;;;4986297;28;20288;-81
2023/06/13 02:07:57;;;;;;;7.25;5.45;;;13.80;1.00;;;;;;4975956;28;20213;-82
2023/06/13 02:10:23;;;;;;;9.07;5.55;;;13.70;1.00;;;;;;4977119;28;20666;-82
2023/06/13 02:12:49;;;;;;;8.27;5.95;;;13.90;1.00;;;;;;4976786;28;20552;-82
2023/06/13 02:15:15;;;;;;;7.18;5.85;;;14.00;1.00;;;;;;4977273;28;20190;-82
2023/06/13 02:17:41;;;;;;;7.38;5.70;;;14.00;1.00;;;;;;4980450;28;20592;-82
2023/06/13 02:20:08;;;;;;;7.68;5.60;;;14.00;1.00;;;;;;4980190;28;20259;-82
2023/06/13 02:22:34;;;;;;;8.73;6.00;;;13.90;1.00;;;;;;4980300;28;20185;-82
2023/06/13 02:25:00;;;;;;;8.45;5.53;;;13.80;1.00;;;;;;4980195;28;20215;-82
2023/06/13 02:27:26;;;;;;;7.47;6.13;;;13.70;1.00;;;;;;4981959;28;20173;-81
2023/06/13 02:29:53;;;;;;;9.30;5.88;;;13.60;1.00;;;;;;4983404;28;20205;-82
2023/06/13 02:32:18;;;;;;;7.43;6.07;;;13.60;1.00;;;;;;4983577;28;20639;-82
2023/06/13 02:34:44;;;;;;;7.50;6.03;;;13.60;1.00;;;;;;4983877;28;20185;-82
2023/06/13 02:37:10;;;;;;;8.30;5.93;;;13.60;1.00;;;;;;4983995;28;20177;-82
2023/06/13 02:39:36;;;;;;;9.13;6.20;;;13.50;1.00;;;;;;4983480;28;20201;-82
2023/06/13 02:42:02;;;;;;;6.68;5.63;;;13.50;1.00;;;;;;4983483;28;20181;-82
2023/06/13 02:44:28;;;;;;;7.93;6.05;;;13.50;1.00;;;;;;4983600;28;20692;-82
2023/06/13 02:46:53;;;;;;;12.48;6.28;;;13.60;1.00;;;;;;4983977;28;20181;-82
2023/06/13 02:49:19;;;;;;;7.15;5.68;;;13.60;1.00;;;;;;4986712;28;20227;-83
2023/06/13 02:51:45;;;;;;;8.52;5.80;;;13.60;1.00;;;;;;4989723;28;20201;-83
2023/06/13 02:54:11;;;;;;;8.07;5.60;;;13.60;1.00;;;;;;4990180;28;20661;-83
2023/06/13 02:56:38;;;;;;;9.77;6.57;;;13.60;1.00;;;;;;4984762;28;20259;-83
2023/06/13 02:59:04;;;;;;;8.98;6.47;;;13.60;1.00;;;;;;4983173;28;20241;-83
2023/06/13 03:01:30;;;;;;;9.38;6.57;;;13.60;1.00;;;;;;4982063;28;20248;-83
2023/06/13 03:03:56;;;;;;;8.38;6.40;;;13.60;1.00;;;;;;4980519;28;20181;-83
2023/06/13 03:06:24;;;;;;;11.05;5.85;;;13.60;1.00;;;;;;4982023;28;20201;-83
2023/06/13 03:08:52;;;;;;;9.27;6.35;;;13.60;1.00;;;;;;4981618;28;20541;-83
2023/06/13 03:11:18;;;;;;;9.35;6.90;;;13.60;1.00;;;;;;4982687;28;20169;-83
2023/06/13 03:13:45;;;;;;;9.80;7.18;;;13.60;1.00;;;;;;4981672;28;20177;-83
2023/06/13 03:16:11;;;;;;;8.40;6.13;;;13.50;1.00;;;;;;4982287;28;20188;-83
2023/06/13 03:18:37;;;;;;;9.45;6.47;;;13.40;1.00;;;;;;4980625;28;20180;-84
2023/06/13 03:21:03;;;;;;;8.75;6.43;;;13.30;1.00;;;;;;4981396;28;20219;-84
2023/06/13 03:23:30;;;;;;;10.40;6.55;;;13.30;1.00;;;;;;4981364;28;20185;-84
2023/06/13 03:25:55;;;;;;;9.95;6.40;;;13.30;1.00;;;;;;4982229;28;20205;-84
2023/06/13 03:28:22;;;;;;;8.98;6.60;;;13.30;1.00;;;;;;4981791;28;20566;-84
2023/06/13 03:30:48;;;;;;;8.82;6.50;;;13.10;1.00;;;;;;4982309;28;20609;-84
2023/06/13 03:33:14;;;;;;;8.45;5.88;;;13.00;1.00;;;;;;4983886;28;20178;-84
2023/06/13 03:35:41;;;;;;;8.23;7.05;;;13.00;1.00;;;;;;4982528;28;20709;-84
2023/06/13 03:38:07;;;;;;;13.85;7.07;;;13.00;1.00;;;;;;4983141;28;20232;-84
2023/06/13 03:40:32;;;;;;;10.50;6.85;;;12.90;14.20;;;;;;4985338;28;20205;-84
2023/06/13 03:42:58;;;;;;;10.45;5.88;;;12.90;36.90;;;;;;4984836;28;20174;-83
2023/06/13 03:45:27;;;;;;;11.80;7.20;;;12.80;43.80;;;;;;4979693;28;20211;-83
2023/06/13 03:47:52;;;;;;;9.13;6.95;;;12.70;60.00;;;;;;4984156;28;20216;-84
2023/06/13 03:50:18;;;;;;;8.20;6.18;;;12.70;65.70;;;;;;4980965;28;20201;-83
2023/06/13 03:52:44;;;;;;;11.75;7.13;;;12.70;99.90;;;;;;4979874;28;20664;-83
2023/06/13 03:55:11;;;;;;;8.02;6.15;;;12.70;76.20;;;;;;4979246;28;20197;-83
2023/06/13 03:57:37;;;;;;;11.23;7.30;;;12.70;99.90;;;;;;4980600;28;20188;-83
2023/06/13 04:00:05;;;;;;;9.30;6.32;;;12.80;99.90;;;;;;4978953;28;20205;-83
2023/06/13 04:02:30;;;;;;;8.10;6.45;;;12.90;99.90;;;;;;4979966;28;20515;-83
2023/06/13 04:04:56;;;;;;;9.98;6.60;;;12.90;99.90;;;;;;4981182;28;20208;-83
2023/06/13 04:07:23;;;;;;;9.38;6.93;;;12.90;99.90;;;;;;4986172;28;20177;-83
2023/06/13 04:09:49;;;;;;;10.18;7.35;;;13.00;99.90;;;;;;4984768;28;20197;-83
2023/06/13 04:12:17;;;;;;;8.00;6.68;;;13.00;99.90;;;;;;4986332;28;20556;-83
2023/06/13 04:14:42;;;;;;;10.43;6.97;;;13.00;99.90;;;;;;4986493;28;20173;-83
2023/06/13 04:17:09;;;;;;;10.75;6.53;;;13.00;99.90;;;;;;4986125;28;20316;-83
2023/06/13 04:19:35;;;;;;;10.07;6.88;;;13.00;99.90;;;;;;4987042;28;20204;-83
2023/06/13 04:22:01;;;;;;;8.60;6.68;;;13.00;99.90;;;;;;4986755;28;20201;-82
2023/06/13 04:24:27;;;;;;;11.65;6.72;;;13.10;99.90;;;;;;4989028;28;20592;-83
2023/06/13 04:26:53;;;;;;;9.18;6.60;;;13.20;99.90;;;;;;4987482;28;20307;-83
2023/06/13 04:29:20;;;;;;;10.93;6.53;;;13.20;99.90;;;;;;4988374;28;20204;-83
2023/06/13 04:31:46;;;;;;;10.65;7.32;;;13.40;99.90;;;;;;4988349;28;20177;-83
2023/06/13 04:34:13;;;;;;;9.73;7.07;;;13.50;99.90;;;;;;4989888;28;20204;-83
2023/06/13 04:36:41;;;;;;;8.82;6.07;;;13.50;99.90;;;;;;4985558;28;20180;-83
2023/06/13 04:39:08;;;;;;;8.90;6.78;;;13.60;99.90;;;;;;4980986;28;20177;-83
2023/06/13 04:41:34;;;;;;;10.57;7.63;;;13.70;99.90;;;;;;4981321;28;20187;-83
2023/06/13 04:44:10;;;;;;;9.40;6.65;;;13.80;99.90;;;;;;4982145;28;20180;-83
2023/06/13 04:46:38;;;;;;;8.85;6.70;;;13.80;99.90;;;;;;4983304;28;20200;-83
2023/06/13 04:49:04;;;;;;;8.52;6.85;;;13.90;99.90;;;;;;4980169;28;20642;-84
2023/06/13 04:51:32;;;;;;;10.45;7.57;;;14.00;99.90;;;;;;4981694;28;20196;-84
2023/06/13 04:53:59;;;;;;;9.15;6.68;;;14.00;99.90;;;;;;4984322;28;20185;-84
2023/06/13 04:56:28;;;;;;;11.52;7.07;;;14.10;99.90;;;;;;4982662;28;20227;-84
2023/06/13 04:58:55;;;;;;;9.27;6.80;;;14.20;99.90;;;;;;4984124;28;20221;-84
2023/06/13 05:01:27;;;;;;;10.65;6.70;;;14.30;99.90;;;;;;4981353;28;20216;-81
2023/06/13 05:03:55;;;;;;;10.65;7.65;;;14.40;99.90;;;;;;4980825;28;20204;-83
2023/06/13 05:06:34;;;;;;;9.52;6.75;;;14.50;99.90;;;;;;4980151;28;20268;-83
2023/06/13 05:09:00;;;;;;;10.13;6.63;;;14.60;91.90;;;;;;4963268;28;20197;-83
2023/06/13 05:11:26;;;;;;;14.23;7.03;;;14.70;71.20;;;;;;4978466;28;20177;-82
2023/06/13 05:13:51;;;;;;;9.75;6.93;;;14.80;77.40;;;;;;4980268;28;20209;-82
2023/06/13 05:16:18;;;;;;;10.00;7.30;;;14.90;48.00;;;;;;4980128;28;20181;-84
2023/06/13 05:18:44;;;;;;;11.25;7.25;;;15.00;1.00;;;;;;4981314;28;20209;-84
2023/06/13 05:21:16;;;;;;;9.57;6.40;;;15.10;27.90;;;;;;4982518;28;20235;-83
2023/06/13 05:23:43;;;;;;;11.07;7.20;;;15.20;40.40;;;;;;4980909;28;20654;-84
2023/06/13 05:26:10;;;;;;;9.70;6.65;;;15.30;56.10;;;;;;4977250;28;20581;-82
2023/06/13 05:28:36;;;;;;;8.50;6.70;;;15.40;1.00;;;;;;4978451;28;20193;-82
2023/06/13 05:31:02;;;;;;;11.50;6.78;;;15.40;1.00;;;;;;4977169;28;20678;-82
2023/06/13 05:33:28;;;;;;;9.18;6.75;;;15.60;1.00;;;;;;4975525;28;20184;-83
2023/06/13 05:35:54;;;;;;;9.07;6.55;;;15.60;1.00;;;;;;4975266;28;20165;-82
2023/06/13 05:38:20;;;;;;;9.52;6.90;;;15.70;1.00;;;;;;4974935;28;20273;-82
2023/06/13 05:40:45;;;;;;;8.48;6.53;;;15.80;1.00;;;;;;4977672;28;20558;-84
2023/06/13 05:43:12;;;;;;;8.75;6.45;;;15.90;1.00;;;;;;4975962;28;20383;-83
2023/06/13 05:45:38;;;;;;;10.30;6.60;;;16.10;1.00;;;;;;4976661;28;20208;-84
2023/06/13 05:48:05;;;;;;;9.15;6.38;;;16.10;1.00;;;;;;4976858;28;20165;-85
2023/06/13 05:50:30;;;;;;;8.75;6.05;;;16.20;1.00;;;;;;4976839;28;20291;-84
2023/06/13 05:52:57;;;;;;;8.98;6.68;;;16.30;1.00;;;;;;4980331;28;20663;-84
2023/06/13 05:55:23;;;;;;;9.35;6.45;;;16.40;1.00;;;;;;4979366;28;20324;-84
2023/06/13 05:57:51;;;;;;;9.20;6.53;;;16.50;1.00;;;;;;4979003;28;20201;-84
2023/06/13 06:00:22;;;;;;;7.70;5.97;;;16.60;1.00;;;;;;4980138;28;20232;-84
2023/06/13 06:02:48;;;;;;;10.05;6.15;;;16.70;1.00;;;;;;4978704;28;20177;-84
2023/06/13 06:05:24;;;;;;;9.70;7.40;;;16.80;1.00;;;;;;4978923;28;20275;-84
2023/06/13 06:07:50;;;;;;;9.88;6.35;;;16.90;1.00;;;;;;4978911;28;20185;-84
2023/06/13 06:10:15;;;;;;;7.43;5.88;;;17.00;1.00;;;;;;4980739;28;20193;-84
2023/06/13 06:12:42;;;;;;;8.27;6.25;;;17.10;1.00;;;;;;4979545;28;20560;-84
2023/06/13 06:15:08;;;;;;;10.25;6.63;;;17.10;1.00;;;;;;4978859;28;20188;-84
2023/06/13 06:17:34;;;;;;;10.73;6.50;;;17.30;1.00;;;;;;4978131;28;20181;-85
2023/06/13 06:20:00;;;;;;;10.35;6.80;;;17.40;99.90;;;;;;4977836;28;20200;-85
2023/06/13 06:22:26;;;;;;;8.85;6.43;;;17.50;99.90;;;;;;4979433;28;20192;-84
2023/06/13 06:24:51;;;;;;;8.30;6.47;;;17.60;99.90;;;;;;4977872;28;20177;-84
2023/06/13 06:27:20;;;;;;;8.45;6.35;;;17.60;1.00;;;;;;4977856;28;20526;-84
2023/06/13 06:29:46;;;;;;;8.27;5.47;;;17.70;1.00;;;;;;4977755;28;20197;-84
2023/06/13 06:32:12;;;;;;;9.00;5.82;;;17.90;99.90;;;;;;4977538;28;20192;-84
2023/06/13 06:34:38;;;;;;;8.13;5.93;;;18.00;1.00;;;;;;4978452;28;20517;-84
2023/06/13 06:37:04;;;;;;;6.82;5.07;;;18.10;1.00;;;;;;4977984;28;20180;-85
2023/06/13 06:39:30;;;;;;;7.72;5.63;;;18.20;1.00;;;;;;4977389;28;20197;-85
2023/06/13 06:41:56;;;;;;;7.63;5.68;;;18.30;1.00;;;;;;4977638;28;20165;-85
2023/06/13 06:44:21;;;;;;;8.52;5.78;;;18.50;99.90;;;;;;4978539;28;20173;-84
2023/06/13 06:46:47;;;;;;;10.23;5.88;;;18.60;99.90;;;;;;4977727;28;20209;-84
2023/06/13 06:49:13;;;;;;;6.97;5.47;;;18.60;1.00;;;;;;4978405;28;20235;-85
2023/06/13 06:51:39;;;;;;;7.45;5.55;;;18.70;1.00;;;;;;4977163;28;20276;-85
2023/06/13 06:54:04;;;;;;;8.23;5.93;;;18.90;1.00;;;;;;4978775;28;20178;-85
2023/06/13 06:56:33;;;;;;;8.15;5.38;;;18.90;99.90;;;;;;4979014;28;20168;-85
2023/06/13 06:58:58;;;;;;;8.52;5.70;;;19.00;99.90;;;;;;4977265;28;20181;-84
2023/06/13 07:01:26;;;;;;;9.75;5.60;;;19.10;1.00;;;;;;4977373;28;20181;-84
2023/06/13 07:03:53;;;;;;;7.80;5.63;;;19.20;99.90;;;;;;4977451;28;20192;-84
2023/06/13 07:06:19;;;;;;;8.02;5.18;;;19.20;1.00;;;;;;4977106;28;20756;-84
2023/06/13 07:08:45;;;;;;;9.88;5.78;;;19.40;99.90;;;;;;4977647;28;20185;-84
2023/06/13 07:11:11;;;;;;;8.13;5.18;;;19.40;99.90;;;;;;4977819;28;20248;-85
2023/06/13 07:13:48;;;;;;;5.97;4.75;;;19.60;99.90;;;;;;4978733;28;20173;-85
2023/06/13 07:16:38;;;;;;;6.90;5.32;;;19.70;1.00;;;;;;4980120;28;20177;-85
2023/06/13 07:19:04;;;;;;;8.02;5.00;;;19.80;99.90;;;;;;4967122;28;20192;-83
2023/06/13 07:21:30;;;;;;;8.60;5.25;;;19.90;99.90;;;;;;4982582;28;20561;-83
2023/06/13 07:23:55;;;;;;;7.88;5.50;;;20.00;1.00;;;;;;4986187;28;20185;-84
2023/06/13 07:26:21;;;;;;;8.60;5.43;;;20.10;99.90;;;;;;4981143;28;20201;-84
2023/06/13 07:28:47;;;;;;;7.63;5.05;;;20.20;1.00;;;;;;4978875;28;20590;-83
2023/06/13 07:31:14;;;;;;;11.50;5.50;;;20.30;99.90;;;;;;4979598;28;20255;-84
2023/06/13 07:33:40;;;;;;;7.07;5.43;;;20.40;99.90;;;;;;4978145;28;20628;-84
2023/06/13 07:36:06;;;;;;;10.75;5.38;;;20.50;99.90;;;;;;4978236;28;20177;-84
2023/06/13 07:38:32;;;;;;;7.20;5.18;;;20.60;1.00;;;;;;4978356;28;20280;-83
2023/06/13 07:40:58;;;;;;;7.20;5.38;;;20.70;1.00;;;;;;4978148;28;20213;-84
2023/06/13 07:43:25;;;;;;;7.22;5.28;;;20.80;1.00;;;;;;4981159;28;20281;-83
2023/06/13 07:45:51;;;;;;;8.75;4.97;;;20.90;1.00;;;;;;4979305;28;20259;-83
2023/06/13 07:48:17;;;;;;;6.53;5.15;;;20.90;1.00;;;;;;4978276;28;20166;-84
2023/06/13 07:50:43;;;;;;;8.25;5.25;;;21.00;1.00;;;;;;4977554;28;20205;-83
2023/06/13 07:53:10;;;;;;;7.88;5.45;;;21.10;99.90;;;;;;4978188;28;20207;-84
2023/06/13 07:55:36;;;;;;;7.13;5.07;;;21.20;1.00;;;;;;4978995;28;20184;-84
2023/06/13 07:58:03;;;;;;;8.70;5.47;;;21.30;1.00;;;;;;4979679;28;20518;-84
2023/06/13 08:00:33;;;;;;;8.95;5.55;;;21.30;1.00;;;;;;4979958;28;20197;-83
2023/06/13 08:02:59;;;;;;;7.28;5.30;;;21.30;12.40;;;;;;4979516;28;20181;-84
2023/06/13 08:05:26;;;;;;;6.20;5.45;;;21.30;99.90;;;;;;4979387;28;20564;-84
2023/06/13 08:07:54;;;;;;;7.40;5.30;;;21.40;99.90;;;;;;4979020;28;20180;-85
2023/06/13 08:10:20;;;;;;;10.00;5.75;;;21.50;31.10;;;;;;4979280;28;20212;-84
2023/06/13 08:12:45;;;;;;;6.90;5.20;;;21.50;1.00;;;;;;4980595;28;20610;-83
2023/06/13 08:15:11;;;;;;;6.60;5.22;;;21.50;1.00;;;;;;4979945;28;20201;-84
2023/06/13 08:17:37;;;;;;;8.43;5.93;;;21.60;50.10;;;;;;4981727;28;20177;-83
2023/06/13 08:20:04;;;;;;;7.70;4.78;;;21.70;44.50;;;;;;4979522;28;20205;-82
2023/06/13 08:22:30;;;;;;;12.32;5.30;;;21.70;53.90;;;;;;4979968;28;20614;-82
2023/06/13 08:24:56;;;;;;;8.95;5.35;;;21.80;99.90;;;;;;4979321;28;20181;-83
2023/06/13 08:27:22;;;;;;;7.60;5.20;;;21.90;1.00;;;;;;4979522;28;20188;-82
2023/06/13 08:29:48;;;;;;;6.40;4.72;;;22.00;1.00;;;;;;4979955;28;20197;-82
2023/06/13 08:32:13;;;;;;;10.68;5.47;;;22.10;1.00;;;;;;4980008;28;20567;-82
2023/06/13 08:34:39;;;;;;;12.40;5.32;;;22.10;99.90;;;;;;4980983;28;20158;-82
2023/06/13 08:37:05;;;;;;;6.32;4.55;;;22.20;99.90;;;;;;4980663;28;20176;-82
2023/06/13 08:39:31;;;;;;;6.15;4.85;;;22.40;1.00;;;;;;4978715;28;20205;-82
2023/06/13 08:41:57;;;;;;;9.45;5.40;;;22.50;1.00;;;;;;4979730;28;20188;-82
2023/06/13 08:44:25;;;;;;;10.10;5.10;;;22.70;99.90;;;;;;4978720;28;20212;-82
2023/06/13 08:46:51;;;;;;;9.75;5.20;;;22.80;99.90;;;;;;4979759;28;20200;-82
2023/06/13 08:49:17;;;;;;;9.98;5.00;;;22.90;99.90;;;;;;4979331;28;20258;-82
2023/06/13 08:51:46;;;;;;;11.20;5.40;;;23.10;99.90;;;;;;4978420;28;20247;-82
2023/06/13 08:54:15;;;;;;;7.70;4.95;;;23.20;99.90;;;;;;4981282;28;20173;-82
2023/06/13 08:56:41;;;;;;;7.63;4.90;;;23.40;99.90;;;;;;4977862;28;20219;-82
2023/06/13 08:59:25;;;;;;;9.98;5.07;;;23.50;99.90;;;;;;4980573;28;20181;-83
2023/06/13 09:01:55;;;;;;;8.23;4.78;;;23.60;1.00;;;;;;4979569;28;20173;-82
2023/06/13 09:04:27;;;;;;;6.20;4.88;;;23.70;1.00;;;;;;4980598;28;20170;-82
2023/06/13 09:06:56;;;;;;;10.98;5.60;;;23.90;1.00;;;;;;4978188;28;20600;-82
2023/06/13 09:09:23;;;;;;;6.55;4.90;;;24.00;99.90;;;;;;4979815;28;20193;-82
2023/06/13 09:11:50;;;;;;;6.72;5.05;;;24.20;1.00;;;;;;4980552;28;20189;-82
2023/06/13 09:14:17;;;;;;;8.13;5.40;;;24.30;1.00;;;;;;4979885;28;20161;-83
2023/06/13 09:16:44;;;;;;;6.03;5.10;;;24.50;1.00;;;;;;4978551;28;20252;-82
2023/06/13 09:19:10;;;;;;;6.45;5.28;;;24.60;99.90;;;;;;4978023;28;20209;-82
2023/06/13 09:21:37;;;;;;;9.77;5.35;;;24.80;1.00;;;;;;4978941;28;20173;-82
2023/06/13 09:24:03;;;;;;;6.95;5.10;;;24.90;1.00;;;;;;4978240;28;20185;-82
2023/06/13 09:26:29;;;;;;;7.78;4.80;;;25.00;1.00;;;;;;4977399;28;20197;-83
2023/06/13 09:28:57;;;;;;;8.40;5.18;;;25.10;1.00;;;;;;4977154;28;20203;-84
2023/06/13 09:31:23;;;;;;;8.43;5.70;;;25.20;1.00;;;;;;4978516;28;20642;-84
2023/06/13 09:33:49;;;;;;;6.05;4.50;;;25.40;1.00;;;;;;4979280;28;20177;-84
2023/06/13 09:36:16;;;;;;;8.45;4.97;;;25.40;4.20;;;;;;4978445;28;20177;-84
2023/06/13 09:38:42;;;;;;;11.82;5.63;;;25.70;4.30;;;;;;4979333;28;20192;-85
2023/06/13 09:41:11;;;;;;;6.63;5.05;;;25.80;7.90;;;;;;4977940;28;20205;-85
2023/06/13 09:43:38;;;;;;;8.38;4.95;;;26.00;39.40;;;;;;4978210;28;20192;-84
2023/06/13 09:46:08;;;;;;;7.32;4.80;;;25.90;64.70;;;;;;4978109;28;20189;-86
2023/06/13 09:48:34;;;;;;;6.93;4.50;;;26.00;93.90;;;;;;4978741;28;20231;-84
2023/06/13 09:51:00;;;;;;;9.45;5.25;;;26.30;69.90;;;;;;4979978;28;20193;-84
2023/06/13 09:53:25;;;;;;;6.10;4.63;;;26.20;99.90;;;;;;4981369;28;20177;-84
2023/06/13 09:55:51;;;;;;;6.60;5.15;;;26.30;99.90;;;;;;4980015;28;20215;-84
2023/06/13 09:58:17;;;;;;;7.20;5.28;;;26.30;99.90;;;;;;4981410;28;20527;-87
2023/06/13 10:00:44;;;;;;;5.88;4.25;;;26.30;99.90;;;;;;4974547;28;20231;-87
2023/06/13 10:03:10;;;;;;;10.40;6.90;;;26.30;99.90;;;;;;4974821;28;20177;-87
2023/06/13 10:05:36;;;;;;;6.63;4.90;;;26.40;99.90;;;;;;4973963;28;20401;-88
2023/06/13 10:08:02;;;;;;;5.80;4.95;;;26.50;99.90;;;;;;4973962;28;20188;-88
2023/06/13 10:10:27;;;;;;;8.98;5.18;;;26.60;99.90;;;;;;4974315;28;20196;-88
2023/06/13 10:13:00;;;;;;;9.27;5.38;;;26.50;99.90;;;;;;4975566;28;20252;-88
2023/06/13 10:15:39;;;;;;;9.45;5.70;;;26.30;99.90;;;;;;4974737;28;20656;-88
2023/06/13 10:18:11;;;;;;;7.93;5.15;;;26.10;99.90;;;;;;4975553;28;20153;-88
2023/06/13 10:20:38;;;;;;;7.35;4.72;;;26.20;99.90;;;;;;4975519;28;20209;-85
2023/06/13 10:23:06;;;;;;;7.70;4.97;;;26.10;99.90;;;;;;4976349;28;20304;-85
2023/06/13 10:25:33;;;;;;;7.70;4.93;;;26.20;99.90;;;;;;4976969;28;20197;-89
2023/06/13 10:28:22;;;;;;;9.27;5.30;;;26.00;99.90;;;;;;4974344;28;20209;-89
2023/06/13 10:31:03;;;;;;;7.28;5.13;;;26.00;99.90;;;;;;4974235;28;20205;-89
2023/06/13 10:33:57;;;;;;;8.07;5.13;;;26.10;99.90;;;;;;4974804;28;20611;-89
2023/06/13 10:36:45;;;;;;;6.13;5.00;;;26.20;99.90;;;;;;4975833;28;20184;-89
2023/06/13 10:39:36;;;;;;;7.03;4.72;;;26.30;99.90;;;;;;4979661;28;20154;-91
2023/06/13 10:42:19;;;;;;;7.57;4.50;;;26.50;99.90;;;;;;4977954;28;20201;-90
2023/06/13 10:44:50;;;;;;;7.55;5.47;;;26.60;99.90;;;;;;4979557;28;20165;-90
2023/06/13 10:47:18;;;;;;;8.98;5.68;;;26.70;99.90;;;;;;4978980;28;20197;-90
2023/06/13 10:49:48;;;;;;;8.05;5.05;;;26.60;99.90;;;;;;4977537;28;20220;-90
2023/06/13 10:52:13;;;;;;;7.82;4.78;;;26.70;99.90;;;;;;4977942;28;20193;-90
2023/06/13 10:54:40;;;;;;;9.85;5.30;;;26.70;99.90;;;;;;4978073;28;20669;-90
2023/06/13 10:57:07;;;;;;;8.90;4.78;;;26.80;99.90;;;;;;4979992;28;20177;-90
2023/06/13 10:59:37;;;;;;;7.78;4.70;;;26.80;99.90;;;;;;4980661;28;20201;-89
2023/06/13 11:02:05;;;;;;;6.38;4.97;;;26.80;99.90;;;;;;4980292;28;20688;-89
2023/06/13 11:04:31;;;;;;;8.63;5.25;;;26.70;99.90;;;;;;4983404;28;20568;-88
2023/06/13 11:07:22;;;;;;;6.80;4.45;;;26.70;99.90;;;;;;4978983;28;20209;-90
2023/06/13 11:10:11;;;;;;;6.20;4.82;;;26.60;99.90;;;;;;4979007;28;20662;-89
2023/06/13 11:12:38;;;;;;;5.47;4.55;;;26.60;99.90;;;;;;4978393;28;20161;-89
2023/06/13 11:15:05;;;;;;;9.38;4.88;;;26.50;99.90;;;;;;4978810;28;20177;-90
2023/06/13 11:17:33;;;;;;;7.15;4.60;;;26.50;99.90;;;;;;4979507;28;20173;-89
2023/06/13 11:19:59;;;;;;;6.95;4.60;;;26.50;99.90;;;;;;4977324;28;20267;-89
2023/06/13 11:22:25;;;;;;;6.57;4.72;;;26.60;99.90;;;;;;4977589;28;20182;-90
2023/06/13 11:24:53;;;;;;;9.70;4.72;;;26.70;99.90;;;;;;4978958;28;20649;-89
2023/06/13 11:27:19;;;;;;;6.22;4.47;;;26.90;99.90;;;;;;4978517;28;20177;-90
2023/06/13 11:29:45;;;;;;;5.40;4.60;;;26.80;99.90;;;;;;4977393;28;20300;-89
2023/06/13 11:32:12;;;;;;;7.32;4.53;;;26.90;99.90;;;;;;4978920;28;20260;-90
2023/06/13 11:34:50;;;;;;;6.18;4.40;;;27.10;99.90;;;;;;4978484;28;20649;-90
2023/06/13 11:37:25;;;;;;;6.20;4.40;;;27.20;99.90;;;;;;4977917;28;20264;-89
2023/06/13 11:39:56;;;;;;;6.10;4.35;;;27.00;99.90;;;;;;4979623;28;20227;-90
2023/06/13 11:42:23;;;;;;;7.13;4.35;;;27.10;99.90;;;;;;4978247;28;20316;-89
2023/06/13 11:44:49;;;;;;;5.97;4.53;;;27.10;99.90;;;;;;4978493;28;20181;-89
2023/06/13 11:47:16;;;;;;;7.13;4.88;;;27.10;99.90;;;;;;4978909;28;20181;-90
2023/06/13 11:49:53;;;;;;;7.55;4.50;;;27.20;99.90;;;;;;4978528;28;20224;-88
2023/06/13 11:52:18;;;;;;;7.82;4.03;;;27.30;99.90;;;;;;4977260;28;20561;-87
2023/06/13 11:54:47;;;;;;;9.05;4.63;;;27.30;99.90;;;;;;4978504;28;20176;-88
2023/06/13 11:57:15;;;;;;;7.53;4.50;;;27.30;99.90;;;;;;4979297;28;20161;-89
2023/06/13 11:59:41;;;;;;;5.20;4.35;;;27.30;99.90;;;;;;4978662;28;20221;-88
2023/06/13 12:02:08;;;;;;;6.63;4.38;;;27.30;99.90;;;;;;4979291;28;20272;-88
2023/06/13 12:04:34;;;;;;;6.55;4.30;;;27.40;99.90;;;;;;4979171;28;20180;-88
2023/06/13 12:07:06;;;;;;;5.30;4.40;;;27.70;99.90;;;;;;4977353;28;20258;-88
2023/06/13 12:09:32;;;;;;;4.65;4.10;;;27.90;99.90;;;;;;4978117;28;20224;-87
2023/06/13 12:11:58;;;;;;;9.70;5.40;;;28.00;99.90;;;;;;4978343;28;20170;-88
2023/06/13 12:14:24;;;;;;;9.88;4.80;;;28.20;99.90;;;;;;4976711;28;20658;-86
2023/06/13 12:16:51;;;;;;;7.05;4.88;;;28.10;99.90;;;;;;4976690;28;20185;-87
2023/06/13 12:19:21;;;;;;;5.20;4.20;;;28.10;99.90;;;;;;4978055;28;20197;-88
2023/06/13 12:21:53;;;;;;;8.82;4.75;;;28.10;99.90;;;;;;4976355;28;20181;-87
2023/06/13 12:24:23;;;;;;;6.53;4.50;;;28.10;99.90;;;;;;4978918;28;20180;-90
2023/06/13 12:26:51;;;;;;;8.52;4.38;;;28.10;99.90;;;;;;4978537;28;20272;-90
2023/06/13 12:29:17;;;;;;;5.00;4.10;;;28.20;99.90;;;;;;4976390;28;20602;-91
2023/06/13 12:31:45;;;;;;;7.15;4.43;;;28.20;99.90;;;;;;4977452;28;20604;-90
2023/06/13 12:34:36;;;;;;;5.28;4.05;;;28.30;99.90;;;;;;4976873;28;20192;-90
2023/06/13 12:37:07;;;;;;;5.15;4.40;;;28.30;99.90;;;;;;4976179;28;20181;-90
2023/06/13 12:39:34;;;;;;;7.53;4.90;;;28.40;99.90;;;;;;4976701;28;20236;-90
2023/06/13 12:42:02;;;;;;;7.57;4.43;;;28.30;99.90;;;;;;4975956;28;20181;-90
2023/06/13 12:44:31;;;;;;;6.65;4.55;;;28.30;99.90;;;;;;4977716;28;20185;-90
2023/06/13 12:46:59;;;;;;;6.63;4.30;;;28.20;99.90;;;;;;4976002;28;20685;-88
2023/06/13 12:49:25;;;;;;;9.25;4.43;;;28.30;99.90;;;;;;4978353;28;20248;-87
2023/06/13 12:51:54;;;;;;;6.47;4.13;;;28.50;99.90;;;;;;4976461;28;20308;-86
2023/06/13 12:54:25;;;;;;;5.78;4.40;;;28.70;99.90;;;;;;4977464;28;20654;-87
2023/06/13 12:56:56;;;;;;;6.72;4.60;;;28.70;99.90;;;;;;4976630;28;20536;-89